sensor_id;sensor_type;location;lat;lon;timestamp;P1;durP1;ratioP1;P2;durP2;ratioP2
5841;SDS011;2947;52.276;9.946;2023-06-14T00:02:05;4.65;;;2.55;;
5841;SDS011;2947;52.276;9.946;2023-06-14T00:04:33;8.10;;;2.22;;
5841;SDS011;2947;52.276;9.946;2023-06-14T00:06:59;6.72;;;3.20;;
5841;SDS011;2947;52.276;9.946;2023-06-14T00:09:25;5.63;;;2.42;;
5841;SDS011;2947;52.276;9.946;2023-06-14T00:11:51;5.82;;;2.90;;
5841;SDS011;2947;52.276;9.946;2023-06-14T00:14:17;4.70;;;2.35;;
5841;SDS011;2947;52.276;9.946;2023-06-14T00:16:42;6.20;;;3.15;;
5841;SDS011;2947;52.276;9.946;2023-06-14T00:19:08;6.10;;;2.67;;
5841;SDS011;2947;52.276;9.946;2023-06-14T00:21:35;5.70;;;2.38;;
5841;SDS011;2947;52.276;9.946;2023-06-14T00:24:02;6.40;;;3.08;;
5841;SDS011;2947;52.276;9.946;2023-06-14T00:26:29;10.93;;;3.13;;
5841;SDS011;2947;52.276;9.946;2023-06-14T00:28:55;5.15;;;2.35;;
5841;SDS011;2947;52.276;9.946;2023-06-14T00:31:21;4.18;;;2.28;;
5841;SDS011;2947;52.276;9.946;2023-06-14T00:33:48;5.03;;;2.38;;
5841;SDS011;2947;52.276;9.946;2023-06-14T00:36:13;6.70;;;2.42;;
5841;SDS011;2947;52.276;9.946;2023-06-14T00:38:39;4.50;;;2.20;;
5841;SDS011;2947;52.276;9.946;2023-06-14T00:41:05;9.75;;;2.60;;
5841;SDS011;2947;52.276;9.946;2023-06-14T00:43:31;9.57;;;3.28;;
5841;SDS011;2947;52.276;9.946;2023-06-14T00:45:56;4.43;;;2.50;;
5841;SDS011;2947;52.276;9.946;2023-06-14T00:48:22;10.25;;;2.70;;
5841;SDS011;2947;52.276;9.946;2023-06-14T00:50:49;5.93;;;2.35;;
5841;SDS011;2947;52.276;9.946;2023-06-14T00:53:17;5.75;;;2.50;;
5841;SDS011;2947;52.276;9.946;2023-06-14T00:55:45;4.93;;;2.33;;
5841;SDS011;2947;52.276;9.946;2023-06-14T00:58:12;5.45;;;2.42;;
5841;SDS011;2947;52.276;9.946;2023-06-14T01:00:38;5.90;;;2.40;;
5841;SDS011;2947;52.276;9.946;2023-06-14T01:03:04;7.18;;;2.50;;
5841;SDS011;2947;52.276;9.946;2023-06-14T01:05:30;6.35;;;2.50;;
5841;SDS011;2947;52.276;9.946;2023-06-14T01:10:53;5.50;;;2.20;;
5841;SDS011;2947;52.276;9.946;2023-06-14T01:13:35;6.68;;;2.50;;
5841;SDS011;2947;52.276;9.946;2023-06-14T01:16:04;3.67;;;2.30;;
5841;SDS011;2947;52.276;9.946;2023-06-14T01:18:32;5.88;;;2.75;;
5841;SDS011;2947;52.276;9.946;2023-06-14T01:20:58;4.15;;;2.20;;
5841;SDS011;2947;52.276;9.946;2023-06-14T01:23:24;4.25;;;2.15;;
5841;SDS011;2947;52.276;9.946;2023-06-14T01:25:57;5.13;;;2.28;;
5841;SDS011;2947;52.276;9.946;2023-06-14T01:28:25;9.07;;;3.08;;
5841;SDS011;2947;52.276;9.946;2023-06-14T01:30:57;4.93;;;2.78;;
5841;SDS011;2947;52.276;9.946;2023-06-14T01:33:29;5.50;;;2.88;;
5841;SDS011;2947;52.276;9.946;2023-06-14T01:35:56;6.72;;;2.38;;
5841;SDS011;2947;52.276;9.946;2023-06-14T01:38:23;4.30;;;2.65;;
5841;SDS011;2947;52.276;9.946;2023-06-14T01:40:51;4.03;;;2.13;;
5841;SDS011;2947;52.276;9.946;2023-06-14T01:43:20;4.45;;;2.90;;
5841;SDS011;2947;52.276;9.946;2023-06-14T01:45:46;7.60;;;2.88;;
5841;SDS011;2947;52.276;9.946;2023-06-14T01:48:13;5.78;;;2.45;;
5841;SDS011;2947;52.276;9.946;2023-06-14T01:50:40;4.88;;;2.47;;
5841;SDS011;2947;52.276;9.946;2023-06-14T01:53:09;5.50;;;2.58;;
5841;SDS011;2947;52.276;9.946;2023-06-14T01:55:35;4.97;;;2.60;;
5841;SDS011;2947;52.276;9.946;2023-06-14T01:58:08;5.65;;;2.35;;
5841;SDS011;2947;52.276;9.946;2023-06-14T02:00:35;11.00;;;2.70;;
5841;SDS011;2947;52.276;9.946;2023-06-14T02:03:01;6.30;;;2.53;;
5841;SDS011;2947;52.276;9.946;2023-06-14T02:05:30;4.32;;;2.58;;
5841;SDS011;2947;52.276;9.946;2023-06-14T02:07:56;7.57;;;2.63;;
5841;SDS011;2947;52.276;9.946;2023-06-14T02:10:22;5.70;;;2.70;;
5841;SDS011;2947;52.276;9.946;2023-06-14T02:12:48;6.93;;;2.60;;
5841;SDS011;2947;52.276;9.946;2023-06-14T02:15:15;5.38;;;2.70;;
5841;SDS011;2947;52.276;9.946;2023-06-14T02:17:44;8.68;;;3.10;;
5841;SDS011;2947;52.276;9.946;2023-06-14T02:20:14;7.40;;;3.00;;
5841;SDS011;2947;52.276;9.946;2023-06-14T02:22:40;10.35;;;3.28;;
5841;SDS011;2947;52.276;9.946;2023-06-14T02:25:06;5.25;;;2.22;;
5841;SDS011;2947;52.276;9.946;2023-06-14T02:27:33;5.88;;;2.65;;
5841;SDS011;2947;52.276;9.946;2023-06-14T02:30:03;5.97;;;2.78;;
5841;SDS011;2947;52.276;9.946;2023-06-14T02:32:30;6.22;;;2.50;;
5841;SDS011;2947;52.276;9.946;2023-06-14T02:34:56;5.35;;;2.70;;
5841;SDS011;2947;52.276;9.946;2023-06-14T02:37:22;7.28;;;2.50;;
5841;SDS011;2947;52.276;9.946;2023-06-14T02:39:48;6.25;;;2.83;;
5841;SDS011;2947;52.276;9.946;2023-06-14T02:42:13;7.53;;;3.35;;
5841;SDS011;2947;52.276;9.946;2023-06-14T02:44:39;10.13;;;2.88;;
5841;SDS011;2947;52.276;9.946;2023-06-14T02:47:05;4.97;;;2.72;;
5841;SDS011;2947;52.276;9.946;2023-06-14T02:49:31;6.43;;;2.85;;
5841;SDS011;2947;52.276;9.946;2023-06-14T02:51:56;8.75;;;3.13;;
5841;SDS011;2947;52.276;9.946;2023-06-14T02:54:22;5.00;;;2.63;;
5841;SDS011;2947;52.276;9.946;2023-06-14T02:56:48;9.45;;;3.38;;
5841;SDS011;2947;52.276;9.946;2023-06-14T02:59:13;6.57;;;3.17;;
5841;SDS011;2947;52.276;9.946;2023-06-14T03:01:40;9.50;;;3.38;;
5841;SDS011;2947;52.276;9.946;2023-06-14T03:04:09;4.25;;;2.38;;
5841;SDS011;2947;52.276;9.946;2023-06-14T03:06:35;6.97;;;2.70;;
5841;SDS011;2947;52.276;9.946;2023-06-14T03:09:02;7.82;;;2.85;;
5841;SDS011;2947;52.276;9.946;2023-06-14T03:11:32;7.25;;;3.50;;
5841;SDS011;2947;52.276;9.946;2023-06-14T03:13:58;6.57;;;2.78;;
5841;SDS011;2947;52.276;9.946;2023-06-14T03:16:24;4.18;;;2.65;;
5841;SDS011;2947;52.276;9.946;2023-06-14T03:18:51;5.50;;;2.63;;
5841;SDS011;2947;52.276;9.946;2023-06-14T03:21:17;5.38;;;2.72;;
5841;SDS011;2947;52.276;9.946;2023-06-14T03:23:45;4.63;;;2.35;;
5841;SDS011;2947;52.276;9.946;2023-06-14T03:26:11;4.80;;;2.55;;
5841;SDS011;2947;52.276;9.946;2023-06-14T03:28:39;5.53;;;2.30;;
5841;SDS011;2947;52.276;9.946;2023-06-14T03:31:05;5.63;;;3.00;;
5841;SDS011;2947;52.276;9.946;2023-06-14T03:33:31;5.47;;;2.40;;
5841;SDS011;2947;52.276;9.946;2023-06-14T03:35:57;4.68;;;2.65;;
5841;SDS011;2947;52.276;9.946;2023-06-14T03:38:23;7.95;;;2.60;;
5841;SDS011;2947;52.276;9.946;2023-06-14T03:40:48;6.75;;;3.13;;
5841;SDS011;2947;52.276;9.946;2023-06-14T03:43:14;5.05;;;2.35;;
5841;SDS011;2947;52.276;9.946;2023-06-14T03:45:40;5.97;;;2.90;;
5841;SDS011;2947;52.276;9.946;2023-06-14T03:48:05;4.40;;;2.60;;
5841;SDS011;2947;52.276;9.946;2023-06-14T03:50:33;12.85;;;2.95;;
5841;SDS011;2947;52.276;9.946;2023-06-14T03:52:59;4.32;;;2.30;;
5841;SDS011;2947;52.276;9.946;2023-06-14T03:55:26;6.60;;;2.70;;
5841;SDS011;2947;52.276;9.946;2023-06-14T03:57:52;4.90;;;2.85;;
5841;SDS011;2947;52.276;9.946;2023-06-14T04:00:18;5.18;;;2.28;;
5841;SDS011;2947;52.276;9.946;2023-06-14T04:02:44;4.20;;;2.45;;
5841;SDS011;2947;52.276;9.946;2023-06-14T04:05:10;5.13;;;2.40;;
5841;SDS011;2947;52.276;9.946;2023-06-14T04:07:36;8.27;;;2.50;;
5841;SDS011;2947;52.276;9.946;2023-06-14T04:10:11;5.13;;;2.40;;
5841;SDS011;2947;52.276;9.946;2023-06-14T04:12:38;4.47;;;1.98;;
5841;SDS011;2947;52.276;9.946;2023-06-14T04:15:04;4.85;;;2.60;;
5841;SDS011;2947;52.276;9.946;2023-06-14T04:17:31;12.43;;;2.38;;
5841;SDS011;2947;52.276;9.946;2023-06-14T04:20:00;5.00;;;2.30;;
5841;SDS011;2947;52.276;9.946;2023-06-14T04:22:29;4.60;;;2.58;;
5841;SDS011;2947;52.276;9.946;2023-06-14T04:24:56;4.57;;;2.70;;
5841;SDS011;2947;52.276;9.946;2023-06-14T04:27:22;12.82;;;3.03;;
5841;SDS011;2947;52.276;9.946;2023-06-14T04:29:54;4.32;;;2.75;;
5841;SDS011;2947;52.276;9.946;2023-06-14T04:32:24;5.55;;;2.50;;
5841;SDS011;2947;52.276;9.946;2023-06-14T04:34:54;9.70;;;2.72;;
5841;SDS011;2947;52.276;9.946;2023-06-14T04:37:21;4.75;;;2.42;;
5841;SDS011;2947;52.276;9.946;2023-06-14T04:39:47;4.65;;;2.70;;
5841;SDS011;2947;52.276;9.946;2023-06-14T04:42:13;6.13;;;2.60;;
5841;SDS011;2947;52.276;9.946;2023-06-14T04:44:41;4.97;;;2.53;;
5841;SDS011;2947;52.276;9.946;2023-06-14T04:47:08;6.35;;;2.65;;
5841;SDS011;2947;52.276;9.946;2023-06-14T04:49:37;4.28;;;2.47;;
5841;SDS011;2947;52.276;9.946;2023-06-14T04:52:05;9.95;;;2.83;;
5841;SDS011;2947;52.276;9.946;2023-06-14T04:54:31;4.03;;;1.98;;
5841;SDS011;2947;52.276;9.946;2023-06-14T04:56:58;15.63;;;2.88;;
5841;SDS011;2947;52.276;9.946;2023-06-14T04:59:24;4.47;;;2.15;;
5841;SDS011;2947;52.276;9.946;2023-06-14T05:01:50;6.00;;;2.20;;
5841;SDS011;2947;52.276;9.946;2023-06-14T05:04:18;5.95;;;2.92;;
5841;SDS011;2947;52.276;9.946;2023-06-14T05:06:44;4.70;;;2.25;;
5841;SDS011;2947;52.276;9.946;2023-06-14T05:09:13;6.63;;;2.60;;
5841;SDS011;2947;52.276;9.946;2023-06-14T05:11:39;6.60;;;2.35;;
5841;SDS011;2947;52.276;9.946;2023-06-14T05:14:07;3.45;;;1.77;;
5841;SDS011;2947;52.276;9.946;2023-06-14T05:16:33;3.17;;;1.77;;
5841;SDS011;2947;52.276;9.946;2023-06-14T05:18:58;9.73;;;2.60;;
5841;SDS011;2947;52.276;9.946;2023-06-14T05:21:26;5.60;;;2.45;;
5841;SDS011;2947;52.276;9.946;2023-06-14T05:23:51;7.60;;;2.08;;
5841;SDS011;2947;52.276;9.946;2023-06-14T05:26:18;5.63;;;2.72;;
5841;SDS011;2947;52.276;9.946;2023-06-14T05:28:44;6.72;;;2.55;;
5841;SDS011;2947;52.276;9.946;2023-06-14T05:31:10;6.03;;;2.20;;
5841;SDS011;2947;52.276;9.946;2023-06-14T05:33:36;3.72;;;1.60;;
5841;SDS011;2947;52.276;9.946;2023-06-14T05:36:01;5.65;;;1.83;;
5841;SDS011;2947;52.276;9.946;2023-06-14T05:38:27;4.18;;;1.98;;
5841;SDS011;2947;52.276;9.946;2023-06-14T05:40:53;4.55;;;2.13;;
5841;SDS011;2947;52.276;9.946;2023-06-14T05:43:19;6.15;;;2.03;;
5841;SDS011;2947;52.276;9.946;2023-06-14T05:45:44;8.63;;;2.65;;
5841;SDS011;2947;52.276;9.946;2023-06-14T05:48:10;7.50;;;2.10;;
5841;SDS011;2947;52.276;9.946;2023-06-14T05:50:36;5.30;;;2.60;;
5841;SDS011;2947;52.276;9.946;2023-06-14T05:53:01;3.67;;;2.10;;
5841;SDS011;2947;52.276;9.946;2023-06-14T05:55:27;4.35;;;2.13;;
5841;SDS011;2947;52.276;9.946;2023-06-14T05:57:53;3.65;;;1.73;;
5841;SDS011;2947;52.276;9.946;2023-06-14T06:00:18;4.47;;;2.25;;
5841;SDS011;2947;52.276;9.946;2023-06-14T06:02:45;3.92;;;1.95;;
5841;SDS011;2947;52.276;9.946;2023-06-14T06:05:12;4.70;;;2.17;;
5841;SDS011;2947;52.276;9.946;2023-06-14T06:07:40;4.88;;;2.40;;
5841;SDS011;2947;52.276;9.946;2023-06-14T06:10:06;3.92;;;1.90;;
5841;SDS011;2947;52.276;9.946;2023-06-14T06:12:33;5.00;;;2.20;;
5841;SDS011;2947;52.276;9.946;2023-06-14T06:14:59;5.13;;;2.35;;
5841;SDS011;2947;52.276;9.946;2023-06-14T06:17:25;4.95;;;2.45;;
5841;SDS011;2947;52.276;9.946;2023-06-14T06:19:51;4.47;;;2.83;;
5841;SDS011;2947;52.276;9.946;2023-06-14T06:22:17;6.80;;;2.88;;
5841;SDS011;2947;52.276;9.946;2023-06-14T06:24:42;4.53;;;2.17;;
5841;SDS011;2947;52.276;9.946;2023-06-14T06:27:08;5.90;;;2.53;;
5841;SDS011;2947;52.276;9.946;2023-06-14T06:29:34;6.15;;;2.47;;
5841;SDS011;2947;52.276;9.946;2023-06-14T06:32:00;5.40;;;2.42;;
5841;SDS011;2947;52.276;9.946;2023-06-14T06:34:26;7.97;;;2.17;;
5841;SDS011;2947;52.276;9.946;2023-06-14T06:36:52;4.75;;;2.67;;
5841;SDS011;2947;52.276;9.946;2023-06-14T06:39:18;4.78;;;2.65;;
5841;SDS011;2947;52.276;9.946;2023-06-14T06:41:44;7.18;;;2.30;;
5841;SDS011;2947;52.276;9.946;2023-06-14T06:44:09;3.22;;;2.00;;
5841;SDS011;2947;52.276;9.946;2023-06-14T06:46:36;5.25;;;1.98;;
5841;SDS011;2947;52.276;9.946;2023-06-14T06:49:06;8.48;;;2.20;;
5841;SDS011;2947;52.276;9.946;2023-06-14T06:51:32;3.70;;;2.15;;
5841;SDS011;2947;52.276;9.946;2023-06-14T06:53:58;5.00;;;2.42;;
5841;SDS011;2947;52.276;9.946;2023-06-14T06:56:23;3.40;;;1.63;;
5841;SDS011;2947;52.276;9.946;2023-06-14T06:58:52;9.52;;;2.10;;
5841;SDS011;2947;52.276;9.946;2023-06-14T07:01:18;5.38;;;2.63;;
5841;SDS011;2947;52.276;9.946;2023-06-14T07:03:46;3.63;;;2.15;;
5841;SDS011;2947;52.276;9.946;2023-06-14T07:06:12;5.65;;;2.63;;
5841;SDS011;2947;52.276;9.946;2023-06-14T07:08:38;4.85;;;2.05;;
5841;SDS011;2947;52.276;9.946;2023-06-14T07:11:04;4.32;;;1.90;;
5841;SDS011;2947;52.276;9.946;2023-06-14T07:13:31;4.07;;;2.38;;
5841;SDS011;2947;52.276;9.946;2023-06-14T07:16:00;3.72;;;2.17;;
5841;SDS011;2947;52.276;9.946;2023-06-14T07:18:26;6.18;;;2.45;;
5841;SDS011;2947;52.276;9.946;2023-06-14T07:20:52;3.67;;;2.08;;
5841;SDS011;2947;52.276;9.946;2023-06-14T07:23:19;4.05;;;2.10;;
5841;SDS011;2947;52.276;9.946;2023-06-14T07:25:45;5.88;;;2.10;;
5841;SDS011;2947;52.276;9.946;2023-06-14T07:28:11;3.72;;;1.92;;
5841;SDS011;2947;52.276;9.946;2023-06-14T07:30:37;3.35;;;1.80;;
5841;SDS011;2947;52.276;9.946;2023-06-14T07:33:03;4.13;;;2.17;;
5841;SDS011;2947;52.276;9.946;2023-06-14T07:35:28;4.95;;;2.10;;
5841;SDS011;2947;52.276;9.946;2023-06-14T07:37:54;5.20;;;1.77;;
5841;SDS011;2947;52.276;9.946;2023-06-14T07:40:20;3.35;;;1.80;;
5841;SDS011;2947;52.276;9.946;2023-06-14T07:42:46;2.90;;;1.35;;
5841;SDS011;2947;52.276;9.946;2023-06-14T07:45:13;5.07;;;2.10;;
5841;SDS011;2947;52.276;9.946;2023-06-14T07:47:39;3.35;;;1.75;;
5841;SDS011;2947;52.276;9.946;2023-06-14T07:50:05;5.75;;;2.83;;
5841;SDS011;2947;52.276;9.946;2023-06-14T07:52:31;3.17;;;1.63;;
5841;SDS011;2947;52.276;9.946;2023-06-14T07:54:57;8.30;;;1.90;;
5841;SDS011;2947;52.276;9.946;2023-06-14T07:57:23;4.20;;;2.00;;
5841;SDS011;2947;52.276;9.946;2023-06-14T07:59:49;9.00;;;1.65;;
5841;SDS011;2947;52.276;9.946;2023-06-14T08:02:15;3.80;;;1.80;;
5841;SDS011;2947;52.276;9.946;2023-06-14T08:04:41;6.32;;;2.25;;
5841;SDS011;2947;52.276;9.946;2023-06-14T08:07:07;5.88;;;1.75;;
5841;SDS011;2947;52.276;9.946;2023-06-14T08:09:33;3.70;;;2.13;;
5841;SDS011;2947;52.276;9.946;2023-06-14T08:12:00;5.10;;;1.83;;
5841;SDS011;2947;52.276;9.946;2023-06-14T08:14:25;3.78;;;2.15;;
5841;SDS011;2947;52.276;9.946;2023-06-14T08:16:51;4.32;;;2.17;;
5841;SDS011;2947;52.276;9.946;2023-06-14T08:19:17;3.53;;;2.17;;
5841;SDS011;2947;52.276;9.946;2023-06-14T08:21:43;5.00;;;2.47;;
5841;SDS011;2947;52.276;9.946;2023-06-14T08:24:10;4.13;;;1.98;;
5841;SDS011;2947;52.276;9.946;2023-06-14T08:26:37;3.92;;;2.00;;
5841;SDS011;2947;52.276;9.946;2023-06-14T08:29:04;6.70;;;2.67;;
5841;SDS011;2947;52.276;9.946;2023-06-14T08:31:32;3.97;;;1.80;;
5841;SDS011;2947;52.276;9.946;2023-06-14T08:33:58;4.30;;;2.22;;
5841;SDS011;2947;52.276;9.946;2023-06-14T08:36:23;4.93;;;1.90;;
5841;SDS011;2947;52.276;9.946;2023-06-14T08:38:49;6.63;;;2.15;;
5841;SDS011;2947;52.276;9.946;2023-06-14T08:41:20;4.65;;;2.30;;
5841;SDS011;2947;52.276;9.946;2023-06-14T08:43:50;6.55;;;2.13;;
5841;SDS011;2947;52.276;9.946;2023-06-14T08:46:17;8.15;;;2.10;;
5841;SDS011;2947;52.276;9.946;2023-06-14T08:48:50;3.55;;;2.00;;
5841;SDS011;2947;52.276;9.946;2023-06-14T08:51:18;3.20;;;1.45;;
5841;SDS011;2947;52.276;9.946;2023-06-14T08:53:44;3.95;;;2.25;;
5841;SDS011;2947;52.276;9.946;2023-06-14T08:56:11;9.50;;;2.25;;
5841;SDS011;2947;52.276;9.946;2023-06-14T08:58:44;4.00;;;1.80;;
5841;SDS011;2947;52.276;9.946;2023-06-14T09:01:13;7.40;;;2.30;;
5841;SDS011;2947;52.276;9.946;2023-06-14T09:03:42;4.43;;;2.03;;
5841;SDS011;2947;52.276;9.946;2023-06-14T09:06:09;8.70;;;2.10;;
5841;SDS011;2947;52.276;9.946;2023-06-14T09:08:40;5.82;;;2.15;;
5841;SDS011;2947;52.276;9.946;2023-06-14T09:11:08;4.50;;;1.95;;
5841;SDS011;2947;52.276;9.946;2023-06-14T09:13:37;4.25;;;1.77;;
5841;SDS011;2947;52.276;9.946;2023-06-14T09:16:03;4.35;;;1.45;;
5841;SDS011;2947;52.276;9.946;2023-06-14T09:18:36;4.63;;;1.90;;
5841;SDS011;2947;52.276;9.946;2023-06-14T09:21:06;3.55;;;1.63;;
5841;SDS011;2947;52.276;9.946;2023-06-14T09:23:39;10.43;;;1.98;;
5841;SDS011;2947;52.276;9.946;2023-06-14T09:26:13;4.05;;;2.15;;
5841;SDS011;2947;52.276;9.946;2023-06-14T09:28:44;7.63;;;2.05;;
5841;SDS011;2947;52.276;9.946;2023-06-14T09:31:13;10.27;;;1.83;;
5841;SDS011;2947;52.276;9.946;2023-06-14T09:33:44;5.13;;;2.30;;
5841;SDS011;2947;52.276;9.946;2023-06-14T09:36:18;11.60;;;2.13;;
5841;SDS011;2947;52.276;9.946;2023-06-14T09:38:55;3.72;;;1.40;;
5841;SDS011;2947;52.276;9.946;2023-06-14T09:41:33;4.80;;;1.65;;
5841;SDS011;2947;52.276;9.946;2023-06-14T09:44:04;2.83;;;1.40;;
5841;SDS011;2947;52.276;9.946;2023-06-14T09:46:35;3.70;;;1.88;;
5841;SDS011;2947;52.276;9.946;2023-06-14T09:49:02;4.15;;;1.92;;
5841;SDS011;2947;52.276;9.946;2023-06-14T09:51:30;3.85;;;1.75;;
5841;SDS011;2947;52.276;9.946;2023-06-14T09:53:59;3.55;;;1.60;;
5841;SDS011;2947;52.276;9.946;2023-06-14T09:56:34;6.88;;;2.53;;
5841;SDS011;2947;52.276;9.946;2023-06-14T09:59:03;5.10;;;2.00;;
5841;SDS011;2947;52.276;9.946;2023-06-14T10:01:32;5.80;;;1.63;;
5841;SDS011;2947;52.276;9.946;2023-06-14T10:04:02;5.68;;;1.88;;
5841;SDS011;2947;52.276;9.946;2023-06-14T10:06:30;4.40;;;1.70;;
5841;SDS011;2947;52.276;9.946;2023-06-14T10:08:58;3.72;;;1.70;;
5841;SDS011;2947;52.276;9.946;2023-06-14T10:11:28;6.75;;;1.90;;
5841;SDS011;2947;52.276;9.946;2023-06-14T10:13:57;3.30;;;1.88;;
5841;SDS011;2947;52.276;9.946;2023-06-14T10:16:28;3.72;;;1.80;;
5841;SDS011;2947;52.276;9.946;2023-06-14T10:19:14;3.55;;;2.05;;
5841;SDS011;2947;52.276;9.946;2023-06-14T10:21:55;3.22;;;1.52;;
5841;SDS011;2947;52.276;9.946;2023-06-14T10:24:29;5.63;;;1.95;;
5841;SDS011;2947;52.276;9.946;2023-06-14T10:27:06;3.60;;;1.95;;
5841;SDS011;2947;52.276;9.946;2023-06-14T10:30:21;6.95;;;1.95;;
5841;SDS011;2947;52.276;9.946;2023-06-14T10:32:27;3.85;;;2.10;;
5841;SDS011;2947;52.276;9.946;2023-06-14T10:34:54;5.43;;;1.92;;
5841;SDS011;2947;52.276;9.946;2023-06-14T10:37:24;5.63;;;2.00;;
5841;SDS011;2947;52.276;9.946;2023-06-14T10:39:50;5.70;;;2.72;;
5841;SDS011;2947;52.276;9.946;2023-06-14T10:42:16;4.53;;;2.53;;
5841;SDS011;2947;52.276;9.946;2023-06-14T10:44:45;7.00;;;2.22;;
5841;SDS011;2947;52.276;9.946;2023-06-14T10:49:53;4.57;;;2.45;;
5841;SDS011;2947;52.276;9.946;2023-06-14T10:52:26;5.40;;;1.98;;
5841;SDS011;2947;52.276;9.946;2023-06-14T10:57:42;8.23;;;1.90;;
5841;SDS011;2947;52.276;9.946;2023-06-14T11:00:16;7.80;;;2.05;;
5841;SDS011;2947;52.276;9.946;2023-06-14T11:05:51;4.65;;;2.13;;
5841;SDS011;2947;52.276;9.946;2023-06-14T11:11:12;9.05;;;2.65;;
5841;SDS011;2947;52.276;9.946;2023-06-14T11:13:38;4.25;;;2.10;;
5841;SDS011;2947;52.276;9.946;2023-06-14T11:16:14;4.43;;;1.98;;
5841;SDS011;2947;52.276;9.946;2023-06-14T11:18:42;3.50;;;1.90;;
5841;SDS011;2947;52.276;9.946;2023-06-14T11:21:10;5.18;;;2.00;;
5841;SDS011;2947;52.276;9.946;2023-06-14T11:23:36;4.63;;;1.90;;
5841;SDS011;2947;52.276;9.946;2023-06-14T11:26:02;4.90;;;2.72;;
5841;SDS011;2947;52.276;9.946;2023-06-14T11:28:36;4.38;;;2.53;;
5841;SDS011;2947;52.276;9.946;2023-06-14T11:31:03;4.75;;;2.63;;
5841;SDS011;2947;52.276;9.946;2023-06-14T11:33:29;4.60;;;2.63;;
5841;SDS011;2947;52.276;9.946;2023-06-14T11:35:55;4.47;;;2.50;;
5841;SDS011;2947;52.276;9.946;2023-06-14T11:38:21;3.97;;;2.13;;
5841;SDS011;2947;52.276;9.946;2023-06-14T11:40:46;4.97;;;2.40;;
5841;SDS011;2947;52.276;9.946;2023-06-14T11:43:12;10.35;;;2.60;;
5841;SDS011;2947;52.276;9.946;2023-06-14T11:45:39;3.92;;;2.10;;
5841;SDS011;2947;52.276;9.946;2023-06-14T11:48:05;11.40;;;2.67;;
5841;SDS011;2947;52.276;9.946;2023-06-14T11:50:31;6.75;;;2.22;;
5841;SDS011;2947;52.276;9.946;2023-06-14T11:53:01;4.75;;;2.00;;
5841;SDS011;2947;52.276;9.946;2023-06-14T11:55:35;4.80;;;2.60;;
5841;SDS011;2947;52.276;9.946;2023-06-14T11:58:05;4.53;;;2.80;;
5841;SDS011;2947;52.276;9.946;2023-06-14T12:00:31;7.22;;;2.53;;
5841;SDS011;2947;52.276;9.946;2023-06-14T12:02:57;6.35;;;3.17;;
5841;SDS011;2947;52.276;9.946;2023-06-14T12:05:23;5.40;;;3.05;;
5841;SDS011;2947;52.276;9.946;2023-06-14T12:07:57;3.75;;;2.50;;
5841;SDS011;2947;52.276;9.946;2023-06-14T12:10:27;8.02;;;2.92;;
5841;SDS011;2947;52.276;9.946;2023-06-14T12:12:57;8.30;;;2.53;;
5841;SDS011;2947;52.276;9.946;2023-06-14T12:15:24;6.47;;;2.60;;
5841;SDS011;2947;52.276;9.946;2023-06-14T12:17:54;5.35;;;2.78;;
5841;SDS011;2947;52.276;9.946;2023-06-14T12:20:20;6.07;;;3.33;;
5841;SDS011;2947;52.276;9.946;2023-06-14T12:22:50;8.55;;;2.83;;
5841;SDS011;2947;52.276;9.946;2023-06-14T12:25:34;10.43;;;3.10;;
5841;SDS011;2947;52.276;9.946;2023-06-14T12:28:08;5.47;;;2.75;;
5841;SDS011;2947;52.276;9.946;2023-06-14T12:30:37;6.28;;;2.92;;
5841;SDS011;2947;52.276;9.946;2023-06-14T12:33:03;11.88;;;2.80;;
5841;SDS011;2947;52.276;9.946;2023-06-14T12:35:30;6.25;;;2.80;;
5841;SDS011;2947;52.276;9.946;2023-06-14T12:37:56;5.82;;;2.50;;
5841;SDS011;2947;52.276;9.946;2023-06-14T12:40:21;5.63;;;3.40;;
5841;SDS011;2947;52.276;9.946;2023-06-14T12:42:48;8.23;;;3.05;;
5841;SDS011;2947;52.276;9.946;2023-06-14T12:45:13;11.65;;;3.50;;
5841;SDS011;2947;52.276;9.946;2023-06-14T12:47:40;4.80;;;2.78;;
5841;SDS011;2947;52.276;9.946;2023-06-14T12:50:06;7.93;;;3.40;;
5841;SDS011;2947;52.276;9.946;2023-06-14T12:52:32;7.03;;;3.08;;
5841;SDS011;2947;52.276;9.946;2023-06-14T12:55:04;5.93;;;3.25;;
5841;SDS011;2947;52.276;9.946;2023-06-14T12:57:30;6.43;;;3.03;;
5841;SDS011;2947;52.276;9.946;2023-06-14T12:59:56;7.45;;;2.65;;
5841;SDS011;2947;52.276;9.946;2023-06-14T13:02:22;5.10;;;3.13;;
5841;SDS011;2947;52.276;9.946;2023-06-14T13:04:49;9.35;;;4.28;;
5841;SDS011;2947;52.276;9.946;2023-06-14T13:07:15;5.80;;;3.50;;
5841;SDS011;2947;52.276;9.946;2023-06-14T13:09:41;8.90;;;5.03;;
5841;SDS011;2947;52.276;9.946;2023-06-14T13:12:09;5.60;;;3.50;;
5841;SDS011;2947;52.276;9.946;2023-06-14T13:14:39;6.50;;;2.90;;
5841;SDS011;2947;52.276;9.946;2023-06-14T13:17:08;5.45;;;2.75;;
5841;SDS011;2947;52.276;9.946;2023-06-14T13:19:35;5.65;;;2.85;;
5841;SDS011;2947;52.276;9.946;2023-06-14T13:22:01;8.90;;;2.70;;
5841;SDS011;2947;52.276;9.946;2023-06-14T13:24:35;9.50;;;2.80;;
5841;SDS011;2947;52.276;9.946;2023-06-14T13:27:01;4.82;;;2.97;;
5841;SDS011;2947;52.276;9.946;2023-06-14T13:29:27;8.45;;;3.28;;
5841;SDS011;2947;52.276;9.946;2023-06-14T13:31:53;8.25;;;3.08;;
5841;SDS011;2947;52.276;9.946;2023-06-14T13:34:19;6.10;;;2.95;;
5841;SDS011;2947;52.276;9.946;2023-06-14T13:36:45;4.68;;;2.40;;
5841;SDS011;2947;52.276;9.946;2023-06-14T13:39:12;6.03;;;2.60;;
5841;SDS011;2947;52.276;9.946;2023-06-14T13:41:38;4.55;;;2.95;;
5841;SDS011;2947;52.276;9.946;2023-06-14T13:44:03;8.60;;;2.85;;
5841;SDS011;2947;52.276;9.946;2023-06-14T13:46:29;5.10;;;2.30;;
5841;SDS011;2947;52.276;9.946;2023-06-14T13:48:56;8.68;;;3.30;;
5841;SDS011;2947;52.276;9.946;2023-06-14T13:51:22;10.20;;;2.72;;
5841;SDS011;2947;52.276;9.946;2023-06-14T13:53:49;6.43;;;3.28;;
5841;SDS011;2947;52.276;9.946;2023-06-14T13:56:15;4.68;;;2.78;;
5841;SDS011;2947;52.276;9.946;2023-06-14T13:58:42;6.15;;;3.00;;
5841;SDS011;2947;52.276;9.946;2023-06-14T14:01:08;6.15;;;3.22;;
5841;SDS011;2947;52.276;9.946;2023-06-14T14:03:34;7.18;;;2.60;;
5841;SDS011;2947;52.276;9.946;2023-06-14T14:06:01;13.32;;;2.97;;
5841;SDS011;2947;52.276;9.946;2023-06-14T14:08:28;4.90;;;3.17;;
5841;SDS011;2947;52.276;9.946;2023-06-14T14:10:53;5.68;;;2.65;;
5841;SDS011;2947;52.276;9.946;2023-06-14T14:13:19;4.57;;;2.90;;
5841;SDS011;2947;52.276;9.946;2023-06-14T14:15:46;6.18;;;3.63;;
5841;SDS011;2947;52.276;9.946;2023-06-14T14:18:11;6.03;;;3.13;;
5841;SDS011;2947;52.276;9.946;2023-06-14T14:20:37;4.57;;;2.85;;
5841;SDS011;2947;52.276;9.946;2023-06-14T14:23:03;5.25;;;2.92;;
5841;SDS011;2947;52.276;9.946;2023-06-14T14:25:29;4.70;;;3.00;;
5841;SDS011;2947;52.276;9.946;2023-06-14T14:27:55;6.28;;;2.72;;
5841;SDS011;2947;52.276;9.946;2023-06-14T14:30:21;6.00;;;2.83;;
5841;SDS011;2947;52.276;9.946;2023-06-14T14:32:48;4.53;;;2.92;;
5841;SDS011;2947;52.276;9.946;2023-06-14T14:35:16;6.80;;;2.83;;
5841;SDS011;2947;52.276;9.946;2023-06-14T14:37:42;5.95;;;3.10;;
5841;SDS011;2947;52.276;9.946;2023-06-14T14:40:08;6.55;;;2.97;;
5841;SDS011;2947;52.276;9.946;2023-06-14T14:42:35;5.28;;;2.72;;
5841;SDS011;2947;52.276;9.946;2023-06-14T14:45:01;5.82;;;3.10;;
5841;SDS011;2947;52.276;9.946;2023-06-14T14:47:28;8.13;;;3.15;;
5841;SDS011;2947;52.276;9.946;2023-06-14T14:49:54;6.20;;;2.88;;
5841;SDS011;2947;52.276;9.946;2023-06-14T14:52:20;6.95;;;3.20;;
5841;SDS011;2947;52.276;9.946;2023-06-14T14:54:45;6.80;;;3.40;;
5841;SDS011;2947;52.276;9.946;2023-06-14T14:57:11;8.32;;;2.63;;
5841;SDS011;2947;52.276;9.946;2023-06-14T14:59:36;11.02;;;3.30;;
5841;SDS011;2947;52.276;9.946;2023-06-14T15:02:02;5.22;;;3.28;;
5841;SDS011;2947;52.276;9.946;2023-06-14T15:04:28;9.48;;;2.50;;
5841;SDS011;2947;52.276;9.946;2023-06-14T15:06:54;5.63;;;3.08;;
5841;SDS011;2947;52.276;9.946;2023-06-14T15:09:19;11.60;;;3.47;;
5841;SDS011;2947;52.276;9.946;2023-06-14T15:11:45;8.05;;;3.67;;
5841;SDS011;2947;52.276;9.946;2023-06-14T15:14:11;6.60;;;3.08;;
5841;SDS011;2947;52.276;9.946;2023-06-14T15:16:37;7.32;;;3.13;;
5841;SDS011;2947;52.276;9.946;2023-06-14T15:19:02;9.30;;;2.88;;
5841;SDS011;2947;52.276;9.946;2023-06-14T15:21:28;6.70;;;2.88;;
5841;SDS011;2947;52.276;9.946;2023-06-14T15:23:54;5.88;;;2.75;;
5841;SDS011;2947;52.276;9.946;2023-06-14T15:26:19;8.38;;;4.03;;
5841;SDS011;2947;52.276;9.946;2023-06-14T15:28:45;5.03;;;2.78;;
5841;SDS011;2947;52.276;9.946;2023-06-14T15:31:11;7.60;;;3.38;;